sensor_id;sensor_type;location;lat;lon;timestamp;P1;durP1;ratioP1;P2;durP2;ratioP2
24857;SDS011;12935;50.782;6.074;2023-05-27T00:02:03;26.67;;;7.97;;
24857;SDS011;12935;50.782;6.074;2023-05-27T00:04:28;26.90;;;6.90;;
24857;SDS011;12935;50.782;6.074;2023-05-27T00:06:54;25.67;;;6.93;;
24857;SDS011;12935;50.782;6.074;2023-05-27T00:09:19;20.40;;;6.07;;
24857;SDS011;12935;50.782;6.074;2023-05-27T00:11:45;23.10;;;6.30;;
24857;SDS011;12935;50.782;6.074;2023-05-27T00:14:10;23.53;;;6.57;;
24857;SDS011;12935;50.782;6.074;2023-05-27T00:16:36;35.60;;;8.37;;
24857;SDS011;12935;50.782;6.074;2023-05-27T00:19:01;23.53;;;7.23;;
24857;SDS011;12935;50.782;6.074;2023-05-27T00:21:27;34.97;;;7.30;;
24857;SDS011;12935;50.782;6.074;2023-05-27T00:23:53;19.60;;;6.00;;
24857;SDS011;12935;50.782;6.074;2023-05-27T00:26:18;27.43;;;7.03;;
24857;SDS011;12935;50.782;6.074;2023-05-27T00:28:43;21.90;;;6.03;;
24857;SDS011;12935;50.782;6.074;2023-05-27T00:31:09;28.50;;;7.00;;
24857;SDS011;12935;50.782;6.074;2023-05-27T00:33:34;23.33;;;7.60;;
24857;SDS011;12935;50.782;6.074;2023-05-27T00:35:59;24.03;;;6.40;;
24857;SDS011;12935;50.782;6.074;2023-05-27T00:38:25;19.63;;;5.83;;
24857;SDS011;12935;50.782;6.074;2023-05-27T00:40:50;30.90;;;7.30;;
24857;SDS011;12935;50.782;6.074;2023-05-27T00:43:18;27.10;;;6.63;;
24857;SDS011;12935;50.782;6.074;2023-05-27T00:45:43;22.63;;;6.37;;
24857;SDS011;12935;50.782;6.074;2023-05-27T00:48:08;21.73;;;6.17;;
24857;SDS011;12935;50.782;6.074;2023-05-27T00:50:34;26.10;;;8.60;;
24857;SDS011;12935;50.782;6.074;2023-05-27T00:53:00;17.43;;;4.80;;
24857;SDS011;12935;50.782;6.074;2023-05-27T00:55:25;22.37;;;6.10;;
24857;SDS011;12935;50.782;6.074;2023-05-27T00:57:51;18.70;;;5.83;;
24857;SDS011;12935;50.782;6.074;2023-05-27T01:00:20;23.60;;;5.70;;
24857;SDS011;12935;50.782;6.074;2023-05-27T01:02:46;18.87;;;5.40;;
24857;SDS011;12935;50.782;6.074;2023-05-27T01:05:14;30.70;;;7.40;;
24857;SDS011;12935;50.782;6.074;2023-05-27T01:10:09;23.63;;;6.47;;
24857;SDS011;12935;50.782;6.074;2023-05-27T01:12:55;24.90;;;6.33;;
24857;SDS011;12935;50.782;6.074;2023-05-27T01:15:25;22.63;;;5.40;;
24857;SDS011;12935;50.782;6.074;2023-05-27T01:17:53;19.07;;;5.40;;
24857;SDS011;12935;50.782;6.074;2023-05-27T01:20:21;21.93;;;5.87;;
24857;SDS011;12935;50.782;6.074;2023-05-27T01:22:47;21.33;;;5.43;;
24857;SDS011;12935;50.782;6.074;2023-05-27T01:25:17;21.10;;;6.13;;
24857;SDS011;12935;50.782;6.074;2023-05-27T01:27:43;20.60;;;5.47;;
24857;SDS011;12935;50.782;6.074;2023-05-27T01:30:10;19.03;;;5.90;;
24857;SDS011;12935;50.782;6.074;2023-05-27T01:33:19;24.67;;;6.10;;
24857;SDS011;12935;50.782;6.074;2023-05-27T01:35:51;33.27;;;7.60;;
24857;SDS011;12935;50.782;6.074;2023-05-27T01:38:20;25.53;;;6.50;;
24857;SDS011;12935;50.782;6.074;2023-05-27T01:40:47;19.47;;;5.40;;
24857;SDS011;12935;50.782;6.074;2023-05-27T01:43:14;29.63;;;7.67;;
24857;SDS011;12935;50.782;6.074;2023-05-27T01:45:40;29.30;;;6.80;;
24857;SDS011;12935;50.782;6.074;2023-05-27T01:48:06;27.80;;;6.60;;
24857;SDS011;12935;50.782;6.074;2023-05-27T01:50:34;22.57;;;5.23;;
24857;SDS011;12935;50.782;6.074;2023-05-27T01:53:00;19.47;;;5.40;;
24857;SDS011;12935;50.782;6.074;2023-05-27T01:55:25;17.57;;;5.63;;
24857;SDS011;12935;50.782;6.074;2023-05-27T01:57:50;24.30;;;5.83;;
24857;SDS011;12935;50.782;6.074;2023-05-27T02:00:16;21.07;;;6.60;;
24857;SDS011;12935;50.782;6.074;2023-05-27T02:02:41;29.07;;;5.87;;
24857;SDS011;12935;50.782;6.074;2023-05-27T02:05:07;18.90;;;5.80;;
24857;SDS011;12935;50.782;6.074;2023-05-27T02:07:32;23.07;;;5.60;;
24857;SDS011;12935;50.782;6.074;2023-05-27T02:09:58;23.57;;;6.27;;
24857;SDS011;12935;50.782;6.074;2023-05-27T02:12:23;21.60;;;4.97;;
24857;SDS011;12935;50.782;6.074;2023-05-27T02:14:48;22.93;;;7.43;;
24857;SDS011;12935;50.782;6.074;2023-05-27T02:17:14;20.93;;;6.20;;
24857;SDS011;12935;50.782;6.074;2023-05-27T02:19:39;30.63;;;7.77;;
24857;SDS011;12935;50.782;6.074;2023-05-27T02:22:05;17.93;;;5.03;;
24857;SDS011;12935;50.782;6.074;2023-05-27T02:24:30;53.80;;;7.70;;
24857;SDS011;12935;50.782;6.074;2023-05-27T02:26:56;36.77;;;7.40;;
24857;SDS011;12935;50.782;6.074;2023-05-27T02:29:21;39.13;;;7.80;;
24857;SDS011;12935;50.782;6.074;2023-05-27T02:31:46;38.30;;;7.57;;
24857;SDS011;12935;50.782;6.074;2023-05-27T02:34:11;18.87;;;7.73;;
24857;SDS011;12935;50.782;6.074;2023-05-27T02:36:37;34.13;;;6.73;;
24857;SDS011;12935;50.782;6.074;2023-05-27T02:39:02;16.93;;;4.80;;
24857;SDS011;12935;50.782;6.074;2023-05-27T02:41:27;11.83;;;4.27;;
24857;SDS011;12935;50.782;6.074;2023-05-27T02:43:53;33.67;;;5.97;;
24857;SDS011;12935;50.782;6.074;2023-05-27T02:46:19;23.97;;;6.37;;
24857;SDS011;12935;50.782;6.074;2023-05-27T02:48:44;29.50;;;6.70;;
24857;SDS011;12935;50.782;6.074;2023-05-27T02:51:10;18.37;;;4.83;;
24857;SDS011;12935;50.782;6.074;2023-05-27T02:53:36;33.50;;;6.83;;
24857;SDS011;12935;50.782;6.074;2023-05-27T02:56:01;21.63;;;5.63;;
24857;SDS011;12935;50.782;6.074;2023-05-27T02:58:26;22.00;;;5.63;;
24857;SDS011;12935;50.782;6.074;2023-05-27T03:00:52;23.47;;;5.93;;
24857;SDS011;12935;50.782;6.074;2023-05-27T03:03:17;27.47;;;5.97;;
24857;SDS011;12935;50.782;6.074;2023-05-27T03:05:42;46.63;;;8.27;;
24857;SDS011;12935;50.782;6.074;2023-05-27T03:08:07;18.80;;;5.73;;
24857;SDS011;12935;50.782;6.074;2023-05-27T03:10:33;29.57;;;5.93;;
24857;SDS011;12935;50.782;6.074;2023-05-27T03:12:58;24.73;;;5.70;;
24857;SDS011;12935;50.782;6.074;2023-05-27T03:15:24;20.63;;;5.07;;
24857;SDS011;12935;50.782;6.074;2023-05-27T03:17:49;25.03;;;7.80;;
24857;SDS011;12935;50.782;6.074;2023-05-27T03:20:14;39.23;;;8.80;;
24857;SDS011;12935;50.782;6.074;2023-05-27T03:22:41;26.83;;;5.70;;
24857;SDS011;12935;50.782;6.074;2023-05-27T03:25:07;27.57;;;5.80;;
24857;SDS011;12935;50.782;6.074;2023-05-27T03:27:33;18.60;;;5.10;;
24857;SDS011;12935;50.782;6.074;2023-05-27T03:29:58;29.83;;;6.90;;
24857;SDS011;12935;50.782;6.074;2023-05-27T03:32:24;21.50;;;5.00;;
24857;SDS011;12935;50.782;6.074;2023-05-27T03:34:49;46.23;;;8.60;;
24857;SDS011;12935;50.782;6.074;2023-05-27T03:37:15;25.63;;;5.60;;
24857;SDS011;12935;50.782;6.074;2023-05-27T03:39:40;22.10;;;5.13;;
24857;SDS011;12935;50.782;6.074;2023-05-27T03:42:06;33.73;;;7.10;;
24857;SDS011;12935;50.782;6.074;2023-05-27T03:44:31;26.57;;;5.90;;
24857;SDS011;12935;50.782;6.074;2023-05-27T03:46:57;27.57;;;5.47;;
24857;SDS011;12935;50.782;6.074;2023-05-27T03:49:22;28.83;;;5.83;;
24857;SDS011;12935;50.782;6.074;2023-05-27T03:51:48;33.87;;;7.30;;
24857;SDS011;12935;50.782;6.074;2023-05-27T03:54:13;26.80;;;5.67;;
24857;SDS011;12935;50.782;6.074;2023-05-27T03:56:38;29.33;;;6.90;;
24857;SDS011;12935;50.782;6.074;2023-05-27T03:59:04;18.93;;;4.40;;
24857;SDS011;12935;50.782;6.074;2023-05-27T04:01:31;21.80;;;5.70;;
24857;SDS011;12935;50.782;6.074;2023-05-27T04:03:56;31.07;;;6.90;;
24857;SDS011;12935;50.782;6.074;2023-05-27T04:06:21;28.67;;;5.20;;
24857;SDS011;12935;50.782;6.074;2023-05-27T04:08:47;41.50;;;5.20;;
24857;SDS011;12935;50.782;6.074;2023-05-27T04:11:12;20.90;;;5.10;;
24857;SDS011;12935;50.782;6.074;2023-05-27T04:13:37;21.27;;;6.53;;
24857;SDS011;12935;50.782;6.074;2023-05-27T04:16:03;34.23;;;6.40;;
24857;SDS011;12935;50.782;6.074;2023-05-27T04:18:28;19.50;;;5.00;;
24857;SDS011;12935;50.782;6.074;2023-05-27T04:20:54;19.43;;;4.77;;
24857;SDS011;12935;50.782;6.074;2023-05-27T04:23:19;20.03;;;5.27;;
24857;SDS011;12935;50.782;6.074;2023-05-27T04:25:45;25.33;;;6.40;;
24857;SDS011;12935;50.782;6.074;2023-05-27T04:28:10;29.00;;;6.03;;
24857;SDS011;12935;50.782;6.074;2023-05-27T04:30:36;19.53;;;5.00;;
24857;SDS011;12935;50.782;6.074;2023-05-27T04:33:02;22.03;;;5.80;;
24857;SDS011;12935;50.782;6.074;2023-05-27T04:35:27;19.97;;;4.97;;
24857;SDS011;12935;50.782;6.074;2023-05-27T04:37:55;20.87;;;5.20;;
24857;SDS011;12935;50.782;6.074;2023-05-27T04:40:21;19.97;;;5.13;;
24857;SDS011;12935;50.782;6.074;2023-05-27T04:42:46;16.73;;;4.90;;
24857;SDS011;12935;50.782;6.074;2023-05-27T04:45:12;21.20;;;5.17;;
24857;SDS011;12935;50.782;6.074;2023-05-27T04:47:37;25.50;;;6.40;;
24857;SDS011;12935;50.782;6.074;2023-05-27T04:50:03;13.50;;;3.90;;
24857;SDS011;12935;50.782;6.074;2023-05-27T04:52:29;27.10;;;5.57;;
24857;SDS011;12935;50.782;6.074;2023-05-27T04:55:01;24.93;;;6.83;;
24857;SDS011;12935;50.782;6.074;2023-05-27T04:57:30;26.70;;;5.90;;
24857;SDS011;12935;50.782;6.074;2023-05-27T04:59:56;24.43;;;5.90;;
24857;SDS011;12935;50.782;6.074;2023-05-27T05:02:43;22.17;;;9.23;;
24857;SDS011;12935;50.782;6.074;2023-05-27T05:05:11;30.77;;;6.00;;
24857;SDS011;12935;50.782;6.074;2023-05-27T05:07:37;16.50;;;4.93;;
24857;SDS011;12935;50.782;6.074;2023-05-27T05:10:05;21.03;;;5.67;;
24857;SDS011;12935;50.782;6.074;2023-05-27T05:12:32;26.53;;;7.13;;
24857;SDS011;12935;50.782;6.074;2023-05-27T05:14:57;33.87;;;6.67;;
24857;SDS011;12935;50.782;6.074;2023-05-27T05:17:23;29.37;;;6.10;;
24857;SDS011;12935;50.782;6.074;2023-05-27T05:19:49;42.47;;;7.60;;
24857;SDS011;12935;50.782;6.074;2023-05-27T05:22:15;27.60;;;5.87;;
24857;SDS011;12935;50.782;6.074;2023-05-27T05:24:43;38.20;;;7.27;;
24857;SDS011;12935;50.782;6.074;2023-05-27T05:27:09;26.93;;;6.63;;
24857;SDS011;12935;50.782;6.074;2023-05-27T05:29:34;43.10;;;8.20;;
24857;SDS011;12935;50.782;6.074;2023-05-27T05:31:59;25.07;;;5.70;;
24857;SDS011;12935;50.782;6.074;2023-05-27T05:34:24;20.27;;;5.30;;
24857;SDS011;12935;50.782;6.074;2023-05-27T05:36:50;23.07;;;5.80;;
24857;SDS011;12935;50.782;6.074;2023-05-27T05:39:15;31.23;;;6.33;;
24857;SDS011;12935;50.782;6.074;2023-05-27T05:41:41;28.27;;;7.32;;
24857;SDS011;12935;50.782;6.074;2023-05-27T05:44:06;32.47;;;8.83;;
24857;SDS011;12935;50.782;6.074;2023-05-27T05:46:32;23.17;;;5.47;;
24857;SDS011;12935;50.782;6.074;2023-05-27T05:48:57;25.03;;;5.43;;
24857;SDS011;12935;50.782;6.074;2023-05-27T05:51:22;44.50;;;8.50;;
24857;SDS011;12935;50.782;6.074;2023-05-27T05:53:47;28.60;;;6.00;;
24857;SDS011;12935;50.782;6.074;2023-05-27T05:56:13;35.53;;;7.30;;
24857;SDS011;12935;50.782;6.074;2023-05-27T05:58:38;21.93;;;5.40;;
24857;SDS011;12935;50.782;6.074;2023-05-27T06:01:03;25.17;;;5.80;;
24857;SDS011;12935;50.782;6.074;2023-05-27T06:03:29;22.73;;;5.27;;
24857;SDS011;12935;50.782;6.074;2023-05-27T06:05:54;38.37;;;8.50;;
24857;SDS011;12935;50.782;6.074;2023-05-27T06:08:20;26.17;;;6.23;;
24857;SDS011;12935;50.782;6.074;2023-05-27T06:10:45;33.80;;;6.50;;
24857;SDS011;12935;50.782;6.074;2023-05-27T06:13:11;38.63;;;7.10;;
24857;SDS011;12935;50.782;6.074;2023-05-27T06:15:36;29.60;;;6.40;;
24857;SDS011;12935;50.782;6.074;2023-05-27T06:18:02;24.80;;;5.73;;
24857;SDS011;12935;50.782;6.074;2023-05-27T06:20:28;26.20;;;6.53;;
24857;SDS011;12935;50.782;6.074;2023-05-27T06:22:54;37.90;;;7.50;;
24857;SDS011;12935;50.782;6.074;2023-05-27T06:25:19;19.73;;;5.30;;
24857;SDS011;12935;50.782;6.074;2023-05-27T06:27:45;23.43;;;7.27;;
24857;SDS011;12935;50.782;6.074;2023-05-27T06:30:10;24.23;;;6.60;;
24857;SDS011;12935;50.782;6.074;2023-05-27T06:32:36;30.50;;;7.03;;
24857;SDS011;12935;50.782;6.074;2023-05-27T06:35:01;26.60;;;7.60;;
24857;SDS011;12935;50.782;6.074;2023-05-27T06:37:26;31.27;;;6.87;;
24857;SDS011;12935;50.782;6.074;2023-05-27T06:39:52;17.77;;;5.47;;
24857;SDS011;12935;50.782;6.074;2023-05-27T06:42:17;21.80;;;6.70;;
24857;SDS011;12935;50.782;6.074;2023-05-27T06:44:43;16.60;;;5.63;;
24857;SDS011;12935;50.782;6.074;2023-05-27T06:47:09;24.63;;;5.73;;
24857;SDS011;12935;50.782;6.074;2023-05-27T06:49:35;47.80;;;9.60;;
24857;SDS011;12935;50.782;6.074;2023-05-27T06:52:01;26.90;;;6.40;;
24857;SDS011;12935;50.782;6.074;2023-05-27T06:54:27;28.27;;;7.30;;
24857;SDS011;12935;50.782;6.074;2023-05-27T06:56:52;36.90;;;8.53;;
24857;SDS011;12935;50.782;6.074;2023-05-27T06:59:18;24.53;;;7.10;;
24857;SDS011;12935;50.782;6.074;2023-05-27T07:01:43;21.90;;;6.40;;
24857;SDS011;12935;50.782;6.074;2023-05-27T07:04:08;19.00;;;6.43;;
24857;SDS011;12935;50.782;6.074;2023-05-27T07:06:34;33.73;;;7.57;;
24857;SDS011;12935;50.782;6.074;2023-05-27T07:09:02;25.30;;;6.63;;
24857;SDS011;12935;50.782;6.074;2023-05-27T07:11:27;20.60;;;7.60;;
24857;SDS011;12935;50.782;6.074;2023-05-27T07:13:53;21.00;;;6.97;;
24857;SDS011;12935;50.782;6.074;2023-05-27T07:16:18;29.87;;;7.37;;
24857;SDS011;12935;50.782;6.074;2023-05-27T07:18:44;23.73;;;6.83;;
24857;SDS011;12935;50.782;6.074;2023-05-27T07:21:09;26.53;;;7.27;;
24857;SDS011;12935;50.782;6.074;2023-05-27T07:23:35;30.00;;;8.73;;
24857;SDS011;12935;50.782;6.074;2023-05-27T07:26:00;16.60;;;6.63;;
24857;SDS011;12935;50.782;6.074;2023-05-27T07:28:25;15.90;;;6.23;;
24857;SDS011;12935;50.782;6.074;2023-05-27T07:30:51;20.30;;;6.67;;
24857;SDS011;12935;50.782;6.074;2023-05-27T07:33:16;21.10;;;7.00;;
24857;SDS011;12935;50.782;6.074;2023-05-27T07:35:42;23.10;;;7.20;;
24857;SDS011;12935;50.782;6.074;2023-05-27T07:38:07;24.67;;;7.77;;
24857;SDS011;12935;50.782;6.074;2023-05-27T07:40:32;25.30;;;7.90;;
24857;SDS011;12935;50.782;6.074;2023-05-27T07:42:58;33.77;;;10.00;;
24857;SDS011;12935;50.782;6.074;2023-05-27T07:45:23;17.73;;;7.90;;
24857;SDS011;12935;50.782;6.074;2023-05-27T07:47:48;26.00;;;8.17;;
24857;SDS011;12935;50.782;6.074;2023-05-27T07:50:14;42.90;;;10.60;;
24857;SDS011;12935;50.782;6.074;2023-05-27T07:52:40;24.17;;;8.00;;
24857;SDS011;12935;50.782;6.074;2023-05-27T07:55:06;35.20;;;10.00;;
24857;SDS011;12935;50.782;6.074;2023-05-27T07:57:31;27.00;;;8.60;;
24857;SDS011;12935;50.782;6.074;2023-05-27T07:59:57;28.63;;;8.83;;
24857;SDS011;12935;50.782;6.074;2023-05-27T08:02:22;53.10;;;12.30;;
24857;SDS011;12935;50.782;6.074;2023-05-27T08:04:47;34.70;;;9.43;;
24857;SDS011;12935;50.782;6.074;2023-05-27T08:07:13;43.40;;;9.17;;
24857;SDS011;12935;50.782;6.074;2023-05-27T08:09:38;23.93;;;8.30;;
24857;SDS011;12935;50.782;6.074;2023-05-27T08:12:04;22.23;;;8.30;;
24857;SDS011;12935;50.782;6.074;2023-05-27T08:14:31;23.90;;;10.13;;
24857;SDS011;12935;50.782;6.074;2023-05-27T08:16:56;36.07;;;10.97;;
24857;SDS011;12935;50.782;6.074;2023-05-27T08:19:22;43.57;;;12.17;;
24857;SDS011;12935;50.782;6.074;2023-05-27T08:21:49;42.67;;;11.03;;
24857;SDS011;12935;50.782;6.074;2023-05-27T08:24:14;36.83;;;11.53;;
24857;SDS011;12935;50.782;6.074;2023-05-27T08:26:39;21.03;;;9.37;;
24857;SDS011;12935;50.782;6.074;2023-05-27T08:29:05;23.00;;;9.80;;
24857;SDS011;12935;50.782;6.074;2023-05-27T08:31:30;28.93;;;9.73;;
24857;SDS011;12935;50.782;6.074;2023-05-27T08:33:56;27.70;;;9.60;;
24857;SDS011;12935;50.782;6.074;2023-05-27T08:36:21;27.13;;;9.50;;
24857;SDS011;12935;50.782;6.074;2023-05-27T08:38:47;33.30;;;11.23;;
24857;SDS011;12935;50.782;6.074;2023-05-27T08:41:12;24.77;;;10.30;;
24857;SDS011;12935;50.782;6.074;2023-05-27T08:43:38;27.73;;;11.93;;
24857;SDS011;12935;50.782;6.074;2023-05-27T08:46:04;20.40;;;9.47;;
24857;SDS011;12935;50.782;6.074;2023-05-27T08:48:29;24.90;;;10.33;;
24857;SDS011;12935;50.782;6.074;2023-05-27T08:50:55;32.77;;;11.70;;
24857;SDS011;12935;50.782;6.074;2023-05-27T08:53:20;24.63;;;9.63;;
24857;SDS011;12935;50.782;6.074;2023-05-27T08:55:48;19.73;;;9.37;;
24857;SDS011;12935;50.782;6.074;2023-05-27T08:58:16;37.00;;;12.23;;
24857;SDS011;12935;50.782;6.074;2023-05-27T09:00:42;20.07;;;9.73;;
24857;SDS011;12935;50.782;6.074;2023-05-27T09:03:08;18.30;;;9.63;;
24857;SDS011;12935;50.782;6.074;2023-05-27T09:05:34;21.27;;;11.10;;
24857;SDS011;12935;50.782;6.074;2023-05-27T09:07:59;32.80;;;11.63;;
24857;SDS011;12935;50.782;6.074;2023-05-27T09:10:34;21.53;;;10.57;;
24857;SDS011;12935;50.782;6.074;2023-05-27T09:13:00;34.00;;;11.87;;
24857;SDS011;12935;50.782;6.074;2023-05-27T09:15:25;33.93;;;12.30;;
24857;SDS011;12935;50.782;6.074;2023-05-27T09:17:51;23.47;;;12.10;;
24857;SDS011;12935;50.782;6.074;2023-05-27T09:20:16;33.43;;;11.97;;
24857;SDS011;12935;50.782;6.074;2023-05-27T09:22:49;36.93;;;12.97;;
24857;SDS011;12935;50.782;6.074;2023-05-27T09:25:23;37.63;;;13.17;;
24857;SDS011;12935;50.782;6.074;2023-05-27T09:27:49;32.67;;;14.23;;
24857;SDS011;12935;50.782;6.074;2023-05-27T09:30:15;20.20;;;10.97;;
24857;SDS011;12935;50.782;6.074;2023-05-27T09:32:43;19.00;;;10.53;;
24857;SDS011;12935;50.782;6.074;2023-05-27T09:35:10;18.60;;;11.50;;
24857;SDS011;12935;50.782;6.074;2023-05-27T09:37:36;32.23;;;12.40;;
24857;SDS011;12935;50.782;6.074;2023-05-27T09:40:05;29.37;;;12.37;;
24857;SDS011;12935;50.782;6.074;2023-05-27T09:43:05;28.50;;;12.93;;
24857;SDS011;12935;50.782;6.074;2023-05-27T09:45:24;27.70;;;13.50;;
24857;SDS011;12935;50.782;6.074;2023-05-27T09:47:51;29.60;;;12.43;;
24857;SDS011;12935;50.782;6.074;2023-05-27T09:50:18;21.80;;;11.23;;
24857;SDS011;12935;50.782;6.074;2023-05-27T09:52:47;25.43;;;12.60;;
24857;SDS011;12935;50.782;6.074;2023-05-27T09:55:14;20.50;;;11.70;;
24857;SDS011;12935;50.782;6.074;2023-05-27T09:57:41;27.17;;;14.27;;
24857;SDS011;12935;50.782;6.074;2023-05-27T10:00:07;55.07;;;15.03;;
24857;SDS011;12935;50.782;6.074;2023-05-27T10:02:37;22.53;;;12.50;;
24857;SDS011;12935;50.782;6.074;2023-05-27T10:05:03;31.37;;;13.33;;
24857;SDS011;12935;50.782;6.074;2023-05-27T10:07:34;45.20;;;15.03;;
24857;SDS011;12935;50.782;6.074;2023-05-27T10:10:04;54.03;;;14.87;;
24857;SDS011;12935;50.782;6.074;2023-05-27T10:12:31;44.30;;;14.87;;
24857;SDS011;12935;50.782;6.074;2023-05-27T10:14:57;28.70;;;13.67;;
24857;SDS011;12935;50.782;6.074;2023-05-27T10:17:23;22.97;;;12.73;;
24857;SDS011;12935;50.782;6.074;2023-05-27T10:19:49;25.63;;;14.27;;
24857;SDS011;12935;50.782;6.074;2023-05-27T10:22:19;19.83;;;13.63;;
24857;SDS011;12935;50.782;6.074;2023-05-27T10:24:45;21.90;;;13.20;;
24857;SDS011;12935;50.782;6.074;2023-05-27T10:27:13;24.17;;;14.47;;
24857;SDS011;12935;50.782;6.074;2023-05-27T10:29:38;24.37;;;14.63;;
24857;SDS011;12935;50.782;6.074;2023-05-27T10:32:04;31.93;;;15.07;;
24857;SDS011;12935;50.782;6.074;2023-05-27T10:34:36;34.20;;;14.93;;
24857;SDS011;12935;50.782;6.074;2023-05-27T10:37:03;28.27;;;14.33;;
24857;SDS011;12935;50.782;6.074;2023-05-27T10:39:28;68.53;;;20.67;;
24857;SDS011;12935;50.782;6.074;2023-05-27T10:41:55;28.97;;;15.27;;
24857;SDS011;12935;50.782;6.074;2023-05-27T10:44:37;33.33;;;15.53;;
24857;SDS011;12935;50.782;6.074;2023-05-27T10:47:11;28.50;;;16.03;;
24857;SDS011;12935;50.782;6.074;2023-05-27T10:49:44;46.77;;;16.67;;
24857;SDS011;12935;50.782;6.074;2023-05-27T10:52:12;36.67;;;16.60;;
24857;SDS011;12935;50.782;6.074;2023-05-27T10:54:38;40.43;;;17.50;;
24857;SDS011;12935;50.782;6.074;2023-05-27T10:57:05;31.13;;;15.60;;
24857;SDS011;12935;50.782;6.074;2023-05-27T10:59:45;47.63;;;18.53;;
24857;SDS011;12935;50.782;6.074;2023-05-27T11:02:13;37.70;;;18.03;;
24857;SDS011;12935;50.782;6.074;2023-05-27T11:04:39;58.43;;;17.87;;
24857;SDS011;12935;50.782;6.074;2023-05-27T11:07:05;33.13;;;15.67;;
24857;SDS011;12935;50.782;6.074;2023-05-27T11:09:31;42.63;;;16.60;;
24857;SDS011;12935;50.782;6.074;2023-05-27T11:12:07;42.40;;;17.93;;
24857;SDS011;12935;50.782;6.074;2023-05-27T11:14:33;27.17;;;15.10;;
24857;SDS011;12935;50.782;6.074;2023-05-27T11:16:58;40.13;;;19.53;;
24857;SDS011;12935;50.782;6.074;2023-05-27T11:19:23;54.10;;;18.07;;
24857;SDS011;12935;50.782;6.074;2023-05-27T11:21:49;36.97;;;17.37;;
24857;SDS011;12935;50.782;6.074;2023-05-27T11:24:15;29.83;;;16.63;;
24857;SDS011;12935;50.782;6.074;2023-05-27T11:26:44;63.67;;;19.97;;
24857;SDS011;12935;50.782;6.074;2023-05-27T11:29:11;32.37;;;16.73;;
24857;SDS011;12935;50.782;6.074;2023-05-27T11:31:37;44.00;;;17.73;;
24857;SDS011;12935;50.782;6.074;2023-05-27T11:34:10;24.13;;;15.20;;
24857;SDS011;12935;50.782;6.074;2023-05-27T11:36:37;29.23;;;17.37;;
24857;SDS011;12935;50.782;6.074;2023-05-27T11:39:03;23.50;;;16.13;;
24857;SDS011;12935;50.782;6.074;2023-05-27T11:41:29;27.63;;;17.23;;
24857;SDS011;12935;50.782;6.074;2023-05-27T11:46:33;33.03;;;17.50;;
24857;SDS011;12935;50.782;6.074;2023-05-27T11:49:00;34.80;;;18.30;;
24857;SDS011;12935;50.782;6.074;2023-05-27T11:51:27;87.03;;;24.67;;
24857;SDS011;12935;50.782;6.074;2023-05-27T11:53:53;37.83;;;18.40;;
24857;SDS011;12935;50.782;6.074;2023-05-27T11:56:19;30.00;;;17.30;;
24857;SDS011;12935;50.782;6.074;2023-05-27T11:58:45;43.50;;;17.43;;
24857;SDS011;12935;50.782;6.074;2023-05-27T12:01:10;37.33;;;17.83;;
24857;SDS011;12935;50.782;6.074;2023-05-27T12:03:35;36.47;;;16.93;;
24857;SDS011;12935;50.782;6.074;2023-05-27T12:06:01;38.27;;;18.90;;
24857;SDS011;12935;50.782;6.074;2023-05-27T12:08:27;31.37;;;16.73;;
24857;SDS011;12935;50.782;6.074;2023-05-27T12:10:52;31.70;;;17.33;;
24857;SDS011;12935;50.782;6.074;2023-05-27T12:13:19;36.63;;;16.83;;
24857;SDS011;12935;50.782;6.074;2023-05-27T12:15:46;27.03;;;16.03;;
24857;SDS011;12935;50.782;6.074;2023-05-27T12:18:12;29.93;;;16.97;;
24857;SDS011;12935;50.782;6.074;2023-05-27T12:20:37;31.10;;;17.00;;
24857;SDS011;12935;50.782;6.074;2023-05-27T12:23:03;28.27;;;17.20;;
24857;SDS011;12935;50.782;6.074;2023-05-27T12:25:28;21.60;;;14.93;;
24857;SDS011;12935;50.782;6.074;2023-05-27T12:27:53;46.17;;;20.00;;
24857;SDS011;12935;50.782;6.074;2023-05-27T12:30:18;20.50;;;16.30;;
24857;SDS011;12935;50.782;6.074;2023-05-27T12:32:44;28.47;;;16.70;;
24857;SDS011;12935;50.782;6.074;2023-05-27T12:35:09;24.57;;;15.53;;
24857;SDS011;12935;50.782;6.074;2023-05-27T12:37:35;29.03;;;15.40;;
24857;SDS011;12935;50.782;6.074;2023-05-27T12:40:00;26.57;;;16.57;;
24857;SDS011;12935;50.782;6.074;2023-05-27T12:42:29;23.40;;;15.60;;
24857;SDS011;12935;50.782;6.074;2023-05-27T12:44:55;34.43;;;17.50;;
24857;SDS011;12935;50.782;6.074;2023-05-27T12:47:20;24.13;;;16.37;;
24857;SDS011;12935;50.782;6.074;2023-05-27T12:49:45;92.50;;;19.90;;
24857;SDS011;12935;50.782;6.074;2023-05-27T12:52:11;38.23;;;18.50;;
24857;SDS011;12935;50.782;6.074;2023-05-27T12:54:36;30.17;;;17.67;;
24857;SDS011;12935;50.782;6.074;2023-05-27T12:57:02;35.07;;;17.63;;
24857;SDS011;12935;50.782;6.074;2023-05-27T12:59:30;48.70;;;18.93;;
24857;SDS011;12935;50.782;6.074;2023-05-27T13:01:56;33.40;;;18.37;;
24857;SDS011;12935;50.782;6.074;2023-05-27T13:04:21;23.30;;;15.53;;
24857;SDS011;12935;50.782;6.074;2023-05-27T13:06:46;25.73;;;16.27;;
24857;SDS011;12935;50.782;6.074;2023-05-27T13:09:12;29.90;;;16.60;;
24857;SDS011;12935;50.782;6.074;2023-05-27T13:11:38;31.30;;;15.67;;
24857;SDS011;12935;50.782;6.074;2023-05-27T13:14:04;25.20;;;15.57;;
24857;SDS011;12935;50.782;6.074;2023-05-27T13:16:30;34.20;;;16.80;;
24857;SDS011;12935;50.782;6.074;2023-05-27T13:18:55;30.63;;;17.20;;
24857;SDS011;12935;50.782;6.074;2023-05-27T13:21:21;28.23;;;15.40;;
24857;SDS011;12935;50.782;6.074;2023-05-27T13:23:46;34.93;;;16.00;;
24857;SDS011;12935;50.782;6.074;2023-05-27T13:26:11;37.97;;;14.40;;
24857;SDS011;12935;50.782;6.074;2023-05-27T13:28:37;45.97;;;15.80;;
24857;SDS011;12935;50.782;6.074;2023-05-27T13:31:02;31.00;;;15.40;;
24857;SDS011;12935;50.782;6.074;2023-05-27T13:33:29;29.23;;;14.27;;
24857;SDS011;12935;50.782;6.074;2023-05-27T13:35:55;26.30;;;13.40;;
24857;SDS011;12935;50.782;6.074;2023-05-27T13:38:20;27.80;;;15.13;;
24857;SDS011;12935;50.782;6.074;2023-05-27T13:40:46;35.10;;;14.50;;
24857;SDS011;12935;50.782;6.074;2023-05-27T13:43:11;38.57;;;16.17;;
24857;SDS011;12935;50.782;6.074;2023-05-27T13:45:36;25.40;;;13.43;;
24857;SDS011;12935;50.782;6.074;2023-05-27T13:48:01;23.33;;;14.47;;
24857;SDS011;12935;50.782;6.074;2023-05-27T13:50:27;24.80;;;14.67;;
24857;SDS011;12935;50.782;6.074;2023-05-27T13:52:54;26.30;;;13.60;;
24857;SDS011;12935;50.782;6.074;2023-05-27T13:55:19;27.30;;;15.17;;
24857;SDS011;12935;50.782;6.074;2023-05-27T13:57:44;24.67;;;15.70;;
24857;SDS011;12935;50.782;6.074;2023-05-27T14:00:10;29.83;;;16.10;;
24857;SDS011;12935;50.782;6.074;2023-05-27T14:02:35;22.73;;;14.47;;
24857;SDS011;12935;50.782;6.074;2023-05-27T14:05:01;24.40;;;15.33;;
24857;SDS011;12935;50.782;6.074;2023-05-27T14:07:27;22.10;;;14.37;;
24857;SDS011;12935;50.782;6.074;2023-05-27T14:09:53;26.20;;;16.27;;
24857;SDS011;12935;50.782;6.074;2023-05-27T14:12:18;31.53;;;17.10;;
24857;SDS011;12935;50.782;6.074;2023-05-27T14:14:44;34.20;;;17.57;;
24857;SDS011;12935;50.782;6.074;2023-05-27T14:17:09;28.97;;;16.83;;
24857;SDS011;12935;50.782;6.074;2023-05-27T14:19:34;48.87;;;18.90;;
24857;SDS011;12935;50.782;6.074;2023-05-27T14:22:00;34.90;;;17.13;;
24857;SDS011;12935;50.782;6.074;2023-05-27T14:24:25;29.97;;;16.70;;
24857;SDS011;12935;50.782;6.074;2023-05-27T14:26:50;50.03;;;19.90;;
24857;SDS011;12935;50.782;6.074;2023-05-27T14:29:16;39.43;;;17.37;;